Pagrindinis puslapis
METAR-TAF:

METAR-TAF

Oro uostai :

Albenga, Italija

platuma: 44-03N, ilguma: 008-07E, Aukštis: 45 m

Dabartinis oras

Ataskaita buvo paskelbta 15 minutes, ne 06:00 UTC
Vėjas 4 kt iš Šiaurės Vakarų, svyruoja nuo Vakarų/Šiaurės Vakarų ir Šiaurės
Temperatūra 18°C
Drėgmė 94%
Slėgis 1006 hPa
Matomumas 10 km arba daugiau
Išsisklaidę debesys ne aukštis 2000 ft
Su prošvaistėmis ne aukštis 3000 ft
lietus

METAR: LIMG 070600Z 32004KT 290V360 9999 -RA SCT020 BKN030 18/17 Q1006

Laikas: 08:15 (06:15 UTC)


TAF: trūkstamas

Orai ataskaitas ir orų prognozės (METAR, TAF).

turimą stotys yra geltonos ir raudonos taškus žemėlapyje.

Perkelti pele per norėdami pamatyti stoties vardą.

Tada spustelėkite, norėdami matyti oro stebėjimo ir prognozės.

Norėdami pakeisti žemėlapį: spustelėkite ant žalios mygtukų su juodo kryžiaus žemyn,; žalią mygtuką su brūkšneliu, jei norite nutolinti; arba žalių rodyklių gretimoms žemėlapius.


METAR-TAF: